LZSL

Sliač Airport

Sliač, Slovakia (Slovak Republic)
TAF LZSL 181100Z 1812/1821 02010KT 9999 SCT050 SCT070 TEMPO 1812/1815 SHRA FEW040CB BKN050
Issued Valid From Valid To
Jun-18 @ 11:00 UTC
(2 hours ago)
Jun-18 @ 12:00 UTC
(an hour ago)
Jun-18 @ 21:00 UTC
(in 8 hours)
Jun-18 @ 12:00 to Jun-18 @ 21:00
TAF LZSL 181100Z 1812/1821 02010KT 9999 SCT050 SCT070
Wind Visibility Clouds
20° at 10 knots 10,000+ meters
  • Scattered at 5,000' AGL
  • Scattered at 7,000' AGL
Temporary Jun-18 @ 12:00 to Jun-18 @ 15:00
TEMPO 1812/1815 SHRA FEW040CB BKN050
Clouds Conditions
  • Few at 4,000' AGL
  • Broken at 5,000' AGL
  • Rain
TAF LZSL 181100Z 1812/1821 02010KT 9999 SCT050 SCT070 TEMPO 1812/1815 SHRA FEW040CB BKN050
Issued Jun-18 @ 11:00 UTC
(2 hours ago)
Valid From Jun-18 @ 12:00 UTC
(an hour ago)
Valid To Jun-18 @ 21:00 UTC
(in 8 hours)
Jun-18 @ 12:00 - Jun-18 @ 21:00
Wind Visibility
20° at 10 knots 10,000+ meters
Clouds
  • Scattered at 5,000' AGL
  • Scattered at 7,000' AGL
Temporary Jun-18 @ 12:00 - Jun-18 @ 15:00
Clouds
  • Few at 4,000' AGL
  • Broken at 5,000' AGL
Conditions
  • Rain